CheckWX is a tool to help pilots better visualize weather data.  It is not intended as a substitute for an official pre-flight weather briefing.

07:09:38 UTC

UNNT TAF
Tolmachevo Airport
Novosibirsk, Russian Federation
TAF UNNT 200500Z 2006/2106 30003G08MPS 9999 BKN040CB PROB40 TEMPO 2006/2016 -TSRA

Jun-20@
06:00 UTC

Jun-20 @ 06:00 UTC

Jun-21@
06:00 UTC

Jun-21 @ 06:00 UTC

TAF UNNT 200500Z 2006/2106 30003G08MPS 9999 BKN040CB
Wind
  • 300° at 6 KTS
  • {Gusting to 16 KTS
Cloud Levels
  • Broken at 4,000' AGL

Jun-20@
06:00 UTC

Jun-20 @ 06:00 UTC

Jun-20@
16:00 UTC

Jun-20 @ 16:00 UTC

PROB40 TEMPO 2006/2016 -TSRA

Temporary - 40% Likelihood

Temporary - 40% Likelihood during this time.

Conditions
Light Thunderstorm, Light Rain